Terminal Aerodrome Forecast
Issued by NWS

Home | Current Version | Previous Version | Graphics & Text | Print | Product List | Glossary On
Versions: 1 2 3 4 5 6 7 8 9 10 11 12 13 14 15 16 17
000
FTUS43 KICT 261451 AAA
TAFRSL
TAF AMD
KRSL 261451Z 2615/2712 24013KT P6SM SCT250
     FM262300 14012KT P6SM VCTS SCT040CB
     FM270400 30011KT P6SM SCT150=

USA.gov is the U.S. government's official web portal to all federal, state and local government web resources and services.